Wednesday, December 12, 2018, 10:55 PM EST
Back to Local

KBLM, Belmar-farmingdale

Location: Farmingdale, NJ, United States Lat: 40.183
Local Time: 10:55 PM EST ( 3:55 GMT) Lon: -74.133
Time Zone: US/Eastern Elev: 157 ft

Show me the last for .
Show Decoded

2018-12-12 21:56 METAR KBLM 130256Z AUTO 00000KT 10SM CLR M01/M04 A3027 RMK AO2 SLP255 T10111044
                 53013 FZRANO =
2018-12-12 20:56 METAR KBLM 130156Z AUTO 00000KT 10SM CLR M01/M04 A3025 RMK AO2 SLP250 T10111044
                 FZRANO =
2018-12-12 19:56 METAR KBLM 130056Z AUTO 10003KT 10SM CLR M01/M04 A3024 RMK AO2 SLP244 T10061039
                 FZRANO =
2018-12-12 18:56 METAR KBLM 122356Z AUTO 00000KT 10SM CLR M01/M04 A3023 RMK AO2 SLP241 T10061044
                 10044 21006 51022 FZRANO =
2018-12-12 17:56 METAR KBLM 122256Z AUTO 00000KT 10SM CLR 02/M06 A3022 RMK AO2 SLP238 T00171056
                 FZRANO =
2018-12-12 16:56 METAR KBLM 122156Z AUTO 00000KT 10SM CLR 03/M06 A3019 RMK AO2 SLP229 T00281056 =
2018-12-12 15:56 METAR KBLM 122056Z AUTO 32007KT 10SM CLR 03/M05 A3016 RMK AO2 SLP219 T00331050
                 53006 =
2018-12-12 14:56 METAR KBLM 121956Z AUTO 32007KT 10SM SCT044 04/M05 A3015 RMK AO2 SLP217
                 T00391050 =
2018-12-12 13:56 METAR KBLM 121856Z AUTO 30011KT 10SM OVC042 04/M05 A3015 RMK AO2 SLP216
                 T00391050 =
2018-12-12 12:56 METAR KBLM 121756Z AUTO 31013KT 10SM BKN038 04/M04 A3015 RMK AO2 SLP214
                 T00391044 10044 21017 58003 =
2018-12-12 10:56 METAR KBLM 121556Z AUTO 30016G21KT 10SM CLR 04/M04 A3015 RMK AO2 SLP216
                 T00391044 =
2018-12-12 09:56 METAR KBLM 121456Z AUTO 31010KT 10SM CLR 03/M04 A3015 RMK AO2 SLP216 T00331039
                 51019 =
2018-12-12 08:56 METAR KBLM 121356Z AUTO 28010KT 10SM CLR 01/M04 A3015 RMK AO2 SLP216 T00061044
                 FZRANO =
2018-12-12 07:56 METAR KBLM 121256Z AUTO 26005KT 9SM CLR M01/M04 A3012 RMK AO2 SLP205 T10111044
                 FZRANO =
2018-12-12 06:56 METAR KBLM 121156Z AUTO 27005KT 10SM CLR M02/M05 A3010 RMK AO2 SLP197 T10171050
                 10000 21017 53026 FZRANO =
2018-12-12 05:56 METAR KBLM 121056Z AUTO 27006KT 10SM BKN070 M01/M05 A3006 RMK AO2 SLP185
                 T10111050 FZRANO =
2018-12-12 04:56 METAR KBLM 120956Z AUTO 29008KT 10SM FEW060 M01/M06 A3004 RMK AO2 SLP179
                 T10111056 FZRANO =
2018-12-12 03:56 METAR KBLM 120856Z AUTO 27008KT 10SM OVC065 M01/M06 A3002 RMK AO2 SLP171
                 T10061056 51011 FZRANO =
2018-12-12 02:56 METAR KBLM 120756Z AUTO 27007KT 10SM FEW041 OVC065 00/M06 A3001 RMK AO2 SLP169
                 T00001056 FZRANO =
2018-12-12 01:56 METAR KBLM 120656Z AUTO 28006KT 10SM BKN043 OVC050 00/M06 A3000 RMK AO2 SLP166
                 T00001056 FZRANO =
2018-12-11 23:56 METAR KBLM 120456Z AUTO 28005KT 10SM SCT060 M01/M06 A2999 RMK AO2 SLP161
                 T10111056 400611044 FZRANO =
2018-12-11 22:56 METAR KBLM 120356Z AUTO 28005KT 10SM CLR M01/M06 A2999 RMK AO2 SLP160 T10111061
                 FZRANO =

Support USWX by starting your Amazon purchase here.